createdAt,value
2022-08-16T00:00:04.647Z,2.03
2022-08-16T00:02:31.291Z,2.13
2022-08-16T00:04:59.998Z,1.52
2022-08-16T00:07:26.025Z,1.83
2022-08-16T00:09:54.832Z,1.80
2022-08-16T00:12:20.333Z,1.55
2022-08-16T00:14:46.116Z,1.75
2022-08-16T00:17:19.123Z,1.80
2022-08-16T00:19:44.998Z,1.70
2022-08-16T00:22:13.338Z,1.70
2022-08-16T00:24:40.837Z,1.50
2022-08-16T00:27:10.544Z,1.67
2022-08-16T00:29:36.373Z,1.63
2022-08-16T00:32:06.020Z,1.38
2022-08-16T00:34:44.673Z,1.40
2022-08-16T00:37:20.173Z,1.55
2022-08-16T00:39:47.197Z,1.77
2022-08-16T00:42:13.290Z,1.35
2022-08-16T00:44:38.888Z,1.50
2022-08-16T00:47:09.124Z,1.42
2022-08-16T00:49:39.796Z,1.40
2022-08-16T00:52:29.199Z,1.45
2022-08-16T00:54:56.258Z,1.77
2022-08-16T00:57:23.910Z,1.60
2022-08-16T00:59:58.929Z,1.42
2022-08-16T01:02:30.780Z,1.92
2022-08-16T01:05:10.397Z,1.65
2022-08-16T01:07:50.945Z,1.73
2022-08-16T01:10:18.468Z,1.48
2022-08-16T01:12:44.110Z,1.60
2022-08-16T01:15:10.006Z,1.50
2022-08-16T01:17:36.897Z,1.55
2022-08-16T01:20:23.910Z,1.45
2022-08-16T01:23:10.265Z,1.77
2022-08-16T01:25:40.732Z,1.50
2022-08-16T01:28:08.408Z,1.50
2022-08-16T01:30:36.735Z,1.70
2022-08-16T01:33:14.548Z,1.50
2022-08-16T01:35:45.244Z,1.50
2022-08-16T01:38:19.492Z,1.48
2022-08-16T01:40:45.902Z,1.50
2022-08-16T01:43:12.521Z,1.55
2022-08-16T01:45:39.800Z,1.60
2022-08-16T01:48:19.748Z,1.75
2022-08-16T01:51:09.578Z,1.50
2022-08-16T01:53:31.741Z,1.58
2022-08-16T01:55:59.048Z,1.52
2022-08-16T01:58:24.756Z,1.80
2022-08-16T02:00:50.857Z,1.27
2022-08-16T02:03:16.498Z,1.20
2022-08-16T02:05:51.847Z,1.45
2022-08-16T02:08:33.962Z,1.40
2022-08-16T02:11:01.488Z,1.60
2022-08-16T02:13:27.793Z,1.38
2022-08-16T02:15:58.205Z,1.40
2022-08-16T02:18:23.692Z,1.58
2022-08-16T02:20:50.932Z,1.50
2022-08-16T02:23:19.147Z,1.88
2022-08-16T02:25:50.791Z,1.38
2022-08-16T02:30:50.629Z,1.30
2022-08-16T02:33:17.106Z,1.90
2022-08-16T02:35:54.527Z,1.60
2022-08-16T02:38:24.417Z,1.30
2022-08-16T02:40:50.645Z,1.48
2022-08-16T02:43:16.157Z,1.60
2022-08-16T02:45:41.701Z,1.33
2022-08-16T02:48:29.002Z,1.60
2022-08-16T02:51:04.167Z,1.42
2022-08-16T02:53:32.998Z,1.50
2022-08-16T02:55:58.680Z,1.35
2022-08-16T02:58:25.384Z,1.30
2022-08-16T03:00:51.462Z,1.30
2022-08-16T03:03:18.034Z,1.20
2022-08-16T03:05:44.654Z,1.45
2022-08-16T03:08:49.725Z,1.35
2022-08-16T03:11:01.668Z,1.60
2022-08-16T03:13:27.141Z,1.42
2022-08-16T03:15:53.592Z,1.50
2022-08-16T03:18:34.658Z,1.48
2022-08-16T03:21:06.147Z,1.40
2022-08-16T03:23:36.133Z,1.38
2022-08-16T03:26:01.680Z,1.70
2022-08-16T03:28:27.880Z,1.33
2022-08-16T03:30:55.961Z,1.50
2022-08-16T03:33:21.462Z,1.30
2022-08-16T03:35:47.204Z,1.30
2022-08-16T03:38:32.430Z,1.45
2022-08-16T03:40:59.254Z,1.30
2022-08-16T03:43:51.777Z,1.30
2022-08-16T03:46:11.384Z,1.50
2022-08-16T03:48:40.630Z,1.50
2022-08-16T03:51:08.874Z,1.27
2022-08-16T03:53:38.003Z,1.55
2022-08-16T03:56:06.499Z,1.20
2022-08-16T03:58:32.384Z,1.30
2022-08-16T04:00:59.513Z,1.48
2022-08-16T04:03:25.200Z,1.52
2022-08-16T04:05:51.125Z,1.60
2022-08-16T04:08:23.001Z,1.50
2022-08-16T04:10:51.799Z,1.40
2022-08-16T04:13:20.399Z,1.67
2022-08-16T04:16:03.031Z,1.20
2022-08-16T04:18:32.148Z,1.50
2022-08-16T04:20:58.180Z,1.45
2022-08-16T04:23:25.088Z,1.60
2022-08-16T04:25:50.907Z,1.52
2022-08-16T04:28:54.357Z,1.67
2022-08-16T04:31:04.861Z,1.58
2022-08-16T04:33:34.968Z,1.30
2022-08-16T04:36:00.723Z,1.10
2022-08-16T04:38:30.534Z,1.08
2022-08-16T04:40:57.156Z,1.50
2022-08-16T04:43:24.292Z,1.50
2022-08-16T04:46:00.042Z,1.30
2022-08-16T04:48:28.564Z,1.67
2022-08-16T04:50:59.818Z,1.35
2022-08-16T04:53:25.315Z,1.00
2022-08-16T04:55:53.172Z,1.30
2022-08-16T04:58:45.010Z,1.52
2022-08-16T05:01:07.975Z,1.40
2022-08-16T05:03:34.387Z,1.30
2022-08-16T05:06:07.632Z,1.27
2022-08-16T05:08:35.345Z,1.50
2022-08-16T05:11:05.559Z,1.20
2022-08-16T05:13:40.429Z,1.20
2022-08-16T05:16:09.440Z,1.20
2022-08-16T05:18:37.565Z,1.25
2022-08-16T05:21:09.549Z,1.40
2022-08-16T05:23:36.802Z,1.50
2022-08-16T05:26:02.942Z,1.27
2022-08-16T05:28:31.052Z,1.40
2022-08-16T05:31:04.645Z,1.65
2022-08-16T05:33:32.352Z,1.42
2022-08-16T05:35:59.613Z,1.35
2022-08-16T05:38:32.879Z,1.42
2022-08-16T05:41:05.682Z,1.30
2022-08-16T05:43:31.958Z,1.23
2022-08-16T05:45:58.957Z,1.13
2022-08-16T05:48:26.865Z,1.13
2022-08-16T05:50:53.362Z,1.13
2022-08-16T05:53:18.870Z,1.15
2022-08-16T05:55:50.696Z,1.10
2022-08-16T05:58:31.633Z,1.23
2022-08-16T06:00:58.774Z,1.25
2022-08-16T06:03:24.303Z,1.38
2022-08-16T06:05:49.766Z,1.50
2022-08-16T06:08:31.855Z,1.10
2022-08-16T06:11:10.505Z,1.17
2022-08-16T06:13:37.277Z,1.30
2022-08-16T06:16:07.964Z,1.50
2022-08-16T06:18:33.449Z,1.20
2022-08-16T06:21:00.060Z,1.30
2022-08-16T06:23:26.288Z,1.95
2022-08-16T06:25:53.193Z,2.25
2022-08-16T06:28:34.934Z,2.03
2022-08-16T06:31:02.358Z,2.60
2022-08-16T06:33:30.447Z,2.40
2022-08-16T06:36:08.408Z,2.08
2022-08-16T06:38:34.927Z,2.22
2022-08-16T06:41:04.402Z,2.17
2022-08-16T06:43:30.041Z,2.63
2022-08-16T06:45:55.730Z,2.13
2022-08-16T06:48:21.338Z,2.50
2022-08-16T06:50:58.734Z,2.38
2022-08-16T06:53:24.543Z,2.83
2022-08-16T06:55:53.891Z,2.58
2022-08-16T06:58:22.082Z,2.78
2022-08-16T07:00:48.646Z,2.30
2022-08-16T07:03:26.706Z,2.40
2022-08-16T07:05:55.994Z,2.20
2022-08-16T07:08:22.780Z,2.28
2022-08-16T07:10:48.736Z,2.60
2022-08-16T07:13:22.954Z,2.47
2022-08-16T07:16:01.801Z,2.60
2022-08-16T07:18:27.321Z,2.65
2022-08-16T07:20:52.829Z,2.28
2022-08-16T07:23:19.898Z,2.60
2022-08-16T07:25:46.392Z,2.30
2022-08-16T07:28:20.468Z,2.45
2022-08-16T07:30:49.752Z,2.80
2022-08-16T07:33:18.442Z,2.78
2022-08-16T07:36:03.401Z,3.13
2022-08-16T07:38:33.862Z,3.13
2022-08-16T07:41:01.515Z,2.70
2022-08-16T07:43:28.834Z,2.80
2022-08-16T07:45:55.198Z,3.08
2022-08-16T07:48:20.972Z,2.75
2022-08-16T07:50:56.949Z,2.75
2022-08-16T07:53:25.003Z,2.60
2022-08-16T07:55:54.750Z,3.17
2022-08-16T07:58:34.456Z,3.15
2022-08-16T08:01:01.283Z,2.75
2022-08-16T08:03:38.814Z,2.67
2022-08-16T08:06:05.749Z,2.90
2022-08-16T08:08:50.748Z,2.70
2022-08-16T08:11:18.343Z,2.95
2022-08-16T08:13:43.950Z,3.50
2022-08-16T08:16:18.852Z,2.95
2022-08-16T08:18:50.176Z,3.00
2022-08-16T08:21:18.540Z,2.80
2022-08-16T08:23:46.379Z,3.13
2022-08-16T08:26:17.608Z,3.63
2022-08-16T08:28:43.664Z,3.20
2022-08-16T08:31:09.809Z,3.15
2022-08-16T08:33:47.197Z,3.53
2022-08-16T08:36:22.160Z,3.10
2022-08-16T08:38:50.326Z,3.40
2022-08-16T08:41:18.863Z,3.17
2022-08-16T08:43:45.660Z,2.80
2022-08-16T08:46:17.946Z,3.17
2022-08-16T08:48:45.533Z,2.90
2022-08-16T08:51:27.478Z,3.13
2022-08-16T08:53:57.707Z,3.00
2022-08-16T08:56:25.682Z,3.13
2022-08-16T08:58:53.666Z,3.65
2022-08-16T09:01:31.607Z,3.17
2022-08-16T09:04:03.049Z,3.55
2022-08-16T09:06:31.637Z,3.05
2022-08-16T09:08:59.182Z,3.45
2022-08-16T09:11:34.255Z,3.50
2022-08-16T09:14:08.077Z,3.28
2022-08-16T09:17:00.837Z,3.17
2022-08-16T09:19:33.875Z,3.33
2022-08-16T09:21:59.741Z,3.47
2022-08-16T09:24:52.736Z,3.30
2022-08-16T09:27:11.055Z,3.53
2022-08-16T09:29:45.721Z,3.13
2022-08-16T09:32:12.309Z,3.08
2022-08-16T09:34:37.837Z,3.30
2022-08-16T09:37:18.093Z,3.03
2022-08-16T09:39:50.022Z,3.38
2022-08-16T09:42:16.128Z,3.90
2022-08-16T09:45:10.923Z,3.55
2022-08-16T09:47:30.021Z,3.03
2022-08-16T09:50:23.073Z,3.58
2022-08-16T09:52:48.925Z,2.60
2022-08-16T09:55:14.551Z,3.00
2022-08-16T09:57:40.758Z,3.25
2022-08-16T10:00:42.487Z,3.53
2022-08-16T10:03:04.964Z,3.70
2022-08-16T10:05:33.739Z,2.83
2022-08-16T10:07:59.253Z,3.30
2022-08-16T10:10:30.753Z,3.10
2022-08-16T10:13:11.959Z,3.00
2022-08-16T10:15:38.643Z,3.30
2022-08-16T10:18:56.599Z,3.67
2022-08-16T10:20:55.062Z,3.25
2022-08-16T10:23:23.560Z,2.97
2022-08-16T10:27:03.785Z,4.22
2022-08-16T10:28:39.738Z,3.28
2022-08-16T10:31:14.526Z,3.70
2022-08-16T10:33:42.349Z,3.40
2022-08-16T10:36:08.360Z,3.72
2022-08-16T10:38:37.222Z,3.17
2022-08-16T10:41:04.073Z,3.88
2022-08-16T10:43:31.185Z,3.42
2022-08-16T10:46:00.595Z,3.58
2022-08-16T10:48:28.790Z,3.13
2022-08-16T10:50:57.378Z,3.38
2022-08-16T10:53:24.399Z,3.45
2022-08-16T10:55:57.811Z,3.60
2022-08-16T10:58:34.089Z,3.20
2022-08-16T11:01:00.577Z,2.90
2022-08-16T11:03:45.739Z,3.00
2022-08-16T11:06:12.320Z,3.53
2022-08-16T11:08:44.882Z,3.22
2022-08-16T11:11:19.099Z,3.15
2022-08-16T11:14:06.067Z,3.17
2022-08-16T11:19:17.231Z,3.20
2022-08-16T11:24:39.982Z,3.45
2022-08-16T11:27:35.718Z,3.40
2022-08-16T11:29:55.170Z,3.55
2022-08-16T11:32:22.719Z,3.33
2022-08-16T11:35:13.321Z,3.28
2022-08-16T11:40:32.815Z,3.22
2022-08-16T11:42:59.309Z,3.22
2022-08-16T11:45:26.022Z,3.15
2022-08-16T11:47:52.180Z,3.00
2022-08-16T11:50:18.147Z,3.03
2022-08-16T11:52:43.679Z,3.65
2022-08-16T11:55:12.415Z,3.38
2022-08-16T11:57:38.451Z,3.33
2022-08-16T12:00:07.346Z,3.75
2022-08-16T12:02:52.841Z,3.45
2022-08-16T12:05:18.499Z,3.33
2022-08-16T12:07:45.614Z,2.90
2022-08-16T12:10:13.717Z,3.20
2022-08-16T12:12:40.449Z,2.97
2022-08-16T12:15:07.336Z,2.83
2022-08-16T12:17:33.035Z,3.40
2022-08-16T12:19:59.744Z,3.10
2022-08-16T12:22:25.965Z,2.90
2022-08-16T12:24:52.770Z,3.20
2022-08-16T12:27:19.474Z,3.08
2022-08-16T12:29:45.110Z,3.50
2022-08-16T12:32:35.792Z,3.55
2022-08-16T12:34:56.555Z,3.05
2022-08-16T12:37:24.291Z,3.22
2022-08-16T12:39:52.157Z,3.22
2022-08-16T12:42:18.635Z,3.13
2022-08-16T12:44:46.129Z,3.53
2022-08-16T12:47:33.017Z,3.10
2022-08-16T12:49:59.165Z,2.92
2022-08-16T12:52:32.768Z,2.88
2022-08-16T12:54:59.829Z,2.95
2022-08-16T12:57:25.417Z,3.45
2022-08-16T13:00:03.989Z,3.17
2022-08-16T13:02:33.454Z,3.25
2022-08-16T13:04:59.494Z,3.08
2022-08-16T13:07:27.103Z,3.58
2022-08-16T13:09:57.466Z,3.17
2022-08-16T13:12:23.836Z,2.78
2022-08-16T13:14:51.075Z,2.55
2022-08-16T13:17:19.511Z,2.80
2022-08-16T13:22:34.373Z,3.08
2022-08-16T13:24:59.979Z,3.38
2022-08-16T13:27:34.952Z,2.75
2022-08-16T13:30:35.602Z,2.80
2022-08-16T13:33:00.460Z,3.05
2022-08-16T13:35:26.250Z,2.80
2022-08-16T13:38:00.105Z,3.60
2022-08-16T13:40:28.228Z,2.97
2022-08-16T13:42:53.921Z,2.83
2022-08-16T13:45:20.310Z,3.13
2022-08-16T13:47:47.795Z,2.70
2022-08-16T13:50:18.511Z,3.10
2022-08-16T13:52:57.103Z,2.90
2022-08-16T13:55:23.065Z,2.95
2022-08-16T13:58:26.889Z,3.08
2022-08-16T14:00:34.813Z,2.50
2022-08-16T14:03:00.858Z,3.20
2022-08-16T14:05:26.407Z,2.88
2022-08-16T14:07:53.091Z,2.65
2022-08-16T14:10:18.900Z,2.95
2022-08-16T14:12:46.932Z,2.75
2022-08-16T14:15:15.096Z,2.28
2022-08-16T14:18:15.648Z,2.78
2022-08-16T14:20:26.680Z,2.95
2022-08-16T14:22:54.693Z,3.30
2022-08-16T14:25:21.069Z,3.15
2022-08-16T14:27:48.173Z,2.33
2022-08-16T14:30:18.769Z,2.80
2022-08-16T14:32:46.788Z,2.70
2022-08-16T14:35:17.531Z,2.95
2022-08-16T14:37:43.653Z,2.72
2022-08-16T14:40:10.615Z,2.90
2022-08-16T14:42:38.436Z,2.63
2022-08-16T14:45:06.737Z,3.08
2022-08-16T14:47:36.214Z,2.85
2022-08-16T14:50:02.874Z,2.90
2022-08-16T14:52:54.567Z,2.75
2022-08-16T14:55:17.352Z,2.60
2022-08-16T14:57:42.905Z,3.00
2022-08-16T15:00:11.575Z,2.83
2022-08-16T15:02:37.861Z,2.80
2022-08-16T15:05:06.572Z,2.80
2022-08-16T15:07:35.443Z,2.67
2022-08-16T15:10:02.287Z,2.63
2022-08-16T15:12:33.636Z,2.60
2022-08-16T15:14:59.771Z,2.75
2022-08-16T15:17:26.840Z,2.72
2022-08-16T15:19:59.892Z,2.72
2022-08-16T15:22:28.844Z,2.95
2022-08-16T15:24:58.155Z,2.72
2022-08-16T15:27:33.628Z,2.67
2022-08-16T15:30:09.154Z,3.00
2022-08-16T15:32:49.191Z,2.80
2022-08-16T15:35:16.603Z,2.40
2022-08-16T15:37:44.065Z,2.33
2022-08-16T15:40:22.573Z,2.45
2022-08-16T15:42:57.379Z,2.78
2022-08-16T15:45:44.788Z,2.70
2022-08-16T15:48:11.341Z,2.20
2022-08-16T15:50:38.150Z,2.30
2022-08-16T15:53:10.565Z,2.65
2022-08-16T15:55:38.146Z,2.40
2022-08-16T15:58:35.786Z,2.55
2022-08-16T16:00:50.840Z,2.65
2022-08-16T16:03:18.797Z,2.53
2022-08-16T16:05:46.581Z,2.30
2022-08-16T16:08:16.054Z,2.50
2022-08-16T16:10:54.419Z,2.75
2022-08-16T16:13:21.122Z,2.50
2022-08-16T16:15:50.616Z,2.90
2022-08-16T16:18:17.355Z,2.40
2022-08-16T16:20:46.196Z,2.88
2022-08-16T16:23:12.455Z,2.58
2022-08-16T16:25:39.128Z,2.60
2022-08-16T16:28:04.803Z,2.55
2022-08-16T16:33:15.565Z,2.58
2022-08-16T16:35:46.841Z,2.47
2022-08-16T16:38:14.688Z,2.58
2022-08-16T16:40:46.116Z,2.20
2022-08-16T16:43:13.791Z,2.40
2022-08-16T16:45:41.720Z,2.60
2022-08-16T16:48:11.967Z,2.42
2022-08-16T16:50:39.894Z,2.50
2022-08-16T16:53:17.089Z,2.50
2022-08-16T16:55:43.628Z,2.33
2022-08-16T16:58:36.504Z,2.33
2022-08-16T17:01:02.371Z,2.13
2022-08-16T17:03:27.993Z,2.30
2022-08-16T17:06:00.215Z,2.35
2022-08-16T17:08:34.594Z,2.05
2022-08-16T17:11:01.315Z,2.40
2022-08-16T17:13:27.585Z,2.47
2022-08-16T17:15:53.439Z,2.65
2022-08-16T17:19:15.002Z,2.40
2022-08-16T17:21:05.808Z,2.33
2022-08-16T17:23:59.496Z,2.22
2022-08-16T17:26:16.881Z,2.40
2022-08-16T17:28:58.277Z,2.20
2022-08-16T17:31:40.645Z,2.42
2022-08-16T17:34:29.168Z,2.40
2022-08-16T17:36:56.324Z,2.60
2022-08-16T17:39:24.307Z,2.35
2022-08-16T17:41:50.239Z,2.55
2022-08-16T17:44:18.309Z,2.50
2022-08-16T17:46:51.375Z,2.38
2022-08-16T17:49:18.212Z,2.20
2022-08-16T17:51:43.667Z,2.03
2022-08-16T17:54:09.138Z,2.30
2022-08-16T17:56:45.987Z,2.28
2022-08-16T17:59:13.792Z,2.22
2022-08-16T18:01:39.325Z,2.00
2022-08-16T18:04:08.875Z,2.30
2022-08-16T18:06:35.315Z,2.35
2022-08-16T18:09:03.579Z,2.10
2022-08-16T18:11:30.053Z,2.10
2022-08-16T18:13:58.459Z,2.30
2022-08-16T18:16:24.632Z,2.38
2022-08-16T18:18:50.119Z,2.38
2022-08-16T18:21:35.546Z,2.00
2022-08-16T18:24:01.087Z,2.10
2022-08-16T18:26:26.601Z,2.42
2022-08-16T18:28:52.085Z,2.15
2022-08-16T18:31:17.653Z,2.05
2022-08-16T18:33:44.078Z,2.58
2022-08-16T18:36:20.169Z,2.47
2022-08-16T18:38:47.226Z,2.38
2022-08-16T18:41:12.824Z,2.17
2022-08-16T18:44:23.058Z,2.10
2022-08-16T18:46:23.913Z,2.30
2022-08-16T18:48:49.472Z,2.50
2022-08-16T18:51:20.223Z,2.20
2022-08-16T18:53:50.039Z,2.28
2022-08-16T18:56:15.655Z,2.28
2022-08-16T18:58:41.261Z,2.13
2022-08-16T19:01:06.796Z,2.35
2022-08-16T19:03:32.560Z,2.42
2022-08-16T19:06:01.422Z,2.10
2022-08-16T19:08:27.304Z,2.38
2022-08-16T19:10:53.235Z,2.28
2022-08-16T19:13:21.942Z,1.88
2022-08-16T19:15:48.897Z,2.08
2022-08-16T19:18:14.750Z,2.40
2022-08-16T19:20:41.197Z,2.40
2022-08-16T19:23:10.905Z,2.38
2022-08-16T19:25:47.988Z,2.35
2022-08-16T19:28:49.392Z,2.30
2022-08-16T19:31:04.756Z,2.00
2022-08-16T19:33:30.360Z,2.05
2022-08-16T19:35:56.137Z,1.98
2022-08-16T19:38:21.760Z,2.35
2022-08-16T19:40:47.510Z,2.28
2022-08-16T19:43:13.259Z,2.35
2022-08-16T19:45:43.879Z,2.33
2022-08-16T19:48:11.456Z,2.13
2022-08-16T19:50:36.932Z,2.30
2022-08-16T19:53:12.931Z,2.13
2022-08-16T19:55:45.177Z,2.28
2022-08-16T19:58:12.816Z,2.08
2022-08-16T20:00:42.153Z,2.20
2022-08-16T20:03:11.475Z,2.10
2022-08-16T20:05:37.000Z,1.92
2022-08-16T20:08:04.690Z,2.40
2022-08-16T20:10:30.585Z,1.90
2022-08-16T20:13:02.716Z,1.95
2022-08-16T20:15:29.738Z,1.88
2022-08-16T20:17:56.258Z,2.08
2022-08-16T20:20:26.181Z,2.13
2022-08-16T20:22:54.442Z,2.13
2022-08-16T20:25:28.272Z,2.00
2022-08-16T20:27:54.484Z,2.13
2022-08-16T20:30:20.097Z,2.20
2022-08-16T20:32:46.380Z,2.17
2022-08-16T20:35:13.989Z,2.42
2022-08-16T20:37:41.522Z,2.22
2022-08-16T20:40:28.674Z,1.98
2022-08-16T20:42:59.269Z,1.85
2022-08-16T20:45:27.077Z,2.10
2022-08-16T20:47:53.348Z,2.10
2022-08-16T20:50:20.066Z,1.70
2022-08-16T20:52:45.706Z,1.95
2022-08-16T20:55:11.333Z,1.95
2022-08-16T20:57:37.107Z,1.80
2022-08-16T21:00:04.716Z,1.80
2022-08-16T21:02:30.203Z,2.00
2022-08-16T21:04:55.716Z,2.00
2022-08-16T21:07:21.537Z,2.00
2022-08-16T21:09:48.108Z,1.80
2022-08-16T21:12:17.985Z,1.90
2022-08-16T21:14:44.113Z,2.38
2022-08-16T21:17:10.489Z,1.77
2022-08-16T21:19:36.202Z,1.70
2022-08-16T21:22:09.831Z,1.85
2022-08-16T21:24:35.305Z,2.05
2022-08-16T21:27:03.368Z,1.95
2022-08-16T21:29:42.753Z,1.88
2022-08-16T21:32:11.298Z,1.90
2022-08-16T21:34:37.178Z,1.88
2022-08-16T21:37:02.848Z,2.00
2022-08-16T21:39:28.475Z,2.20
2022-08-16T21:41:54.002Z,1.92
2022-08-16T21:44:19.465Z,1.95
2022-08-16T21:46:44.997Z,2.20
2022-08-16T21:49:10.527Z,1.92
2022-08-16T21:51:36.113Z,1.98
2022-08-16T21:54:02.568Z,2.03
2022-08-16T21:56:28.137Z,2.20
2022-08-16T21:58:53.846Z,2.00
2022-08-16T22:01:22.101Z,1.85
2022-08-16T22:03:48.126Z,1.80
2022-08-16T22:06:33.745Z,1.90
2022-08-16T22:08:59.282Z,1.92
2022-08-16T22:11:24.859Z,2.00
2022-08-16T22:13:58.258Z,1.80
2022-08-16T22:16:26.842Z,1.95
2022-08-16T22:18:52.847Z,1.50
2022-08-16T22:21:18.849Z,1.70
2022-08-16T22:23:44.319Z,2.00
2022-08-16T22:26:09.836Z,1.80
2022-08-16T22:28:35.365Z,2.10
2022-08-16T22:31:01.219Z,1.90
2022-08-16T22:33:27.570Z,1.75
2022-08-16T22:35:55.458Z,2.20
2022-08-16T22:38:56.085Z,1.60
2022-08-16T22:41:06.510Z,2.00
2022-08-16T22:43:32.285Z,1.80
2022-08-16T22:45:58.054Z,1.90
2022-08-16T22:48:23.521Z,2.33
2022-08-16T22:50:50.455Z,1.92
2022-08-16T22:53:17.259Z,2.10
2022-08-16T22:55:42.743Z,1.88
2022-08-16T22:58:08.870Z,1.73
2022-08-16T23:00:35.081Z,1.60
2022-08-16T23:03:05.538Z,1.80
2022-08-16T23:05:33.344Z,1.92
2022-08-16T23:07:59.120Z,2.00
2022-08-16T23:10:25.065Z,1.80
2022-08-16T23:12:51.984Z,1.80
2022-08-16T23:15:18.034Z,1.65
2022-08-16T23:17:49.482Z,1.90
2022-08-16T23:20:19.370Z,1.77
2022-08-16T23:23:21.105Z,1.50
2022-08-16T23:25:35.283Z,1.80
2022-08-16T23:28:01.061Z,1.98
2022-08-16T23:30:26.847Z,1.85
2022-08-16T23:32:53.803Z,1.60
2022-08-16T23:35:21.471Z,1.98
2022-08-16T23:37:48.267Z,1.92
2022-08-16T23:40:15.176Z,1.90
2022-08-16T23:42:57.339Z,1.60
2022-08-16T23:45:25.300Z,1.70
2022-08-16T23:47:50.768Z,1.73
2022-08-16T23:50:16.401Z,1.70
2022-08-16T23:53:03.765Z,1.83
2022-08-16T23:55:30.290Z,2.00
2022-08-16T23:57:56.697Z,1.80
